sensor_id;sensor_type;location;lat;lon;timestamp;P1;durP1;ratioP1;P2;durP2;ratioP2
22610;SDS011;11472;45.494;12.142;2023-03-01T00:00:00;16.80;;;9.40;;
22610;SDS011;11472;45.494;12.142;2023-03-01T00:01:04;16.80;;;9.40;;
22610;SDS011;11472;45.494;12.142;2023-03-01T00:02:01;16.80;;;9.40;;
22610;SDS011;11472;45.494;12.142;2023-03-01T00:03:01;16.80;;;9.40;;
22610;SDS011;11472;45.494;12.142;2023-03-01T00:04:00;16.80;;;9.40;;
22610;SDS011;11472;45.494;12.142;2023-03-01T00:05:00;16.80;;;9.40;;
22610;SDS011;11472;45.494;12.142;2023-03-01T00:06:01;16.80;;;9.40;;
22610;SDS011;11472;45.494;12.142;2023-03-01T00:07:00;13.00;;;8.70;;
22610;SDS011;11472;45.494;12.142;2023-03-01T00:08:00;13.00;;;8.70;;
22610;SDS011;11472;45.494;12.142;2023-03-01T00:09:00;13.00;;;8.70;;
22610;SDS011;11472;45.494;12.142;2023-03-01T00:10:00;13.00;;;8.70;;
22610;SDS011;11472;45.494;12.142;2023-03-01T00:11:05;13.00;;;8.70;;
22610;SDS011;11472;45.494;12.142;2023-03-01T00:12:00;13.00;;;8.70;;
22610;SDS011;11472;45.494;12.142;2023-03-01T00:13:01;13.00;;;8.70;;
22610;SDS011;11472;45.494;12.142;2023-03-01T00:14:02;13.00;;;8.70;;
22610;SDS011;11472;45.494;12.142;2023-03-01T00:15:00;13.00;;;8.70;;
22610;SDS011;11472;45.494;12.142;2023-03-01T00:16:03;13.00;;;8.70;;
22610;SDS011;11472;45.494;12.142;2023-03-01T00:17:01;13.00;;;8.70;;
22610;SDS011;11472;45.494;12.142;2023-03-01T00:18:00;13.00;;;8.70;;
22610;SDS011;11472;45.494;12.142;2023-03-01T00:19:00;13.00;;;8.70;;
22610;SDS011;11472;45.494;12.142;2023-03-01T00:20:00;13.00;;;8.70;;
22610;SDS011;11472;45.494;12.142;2023-03-01T00:21:00;13.00;;;8.70;;
22610;SDS011;11472;45.494;12.142;2023-03-01T00:22:00;12.20;;;8.30;;
22610;SDS011;11472;45.494;12.142;2023-03-01T00:23:00;12.20;;;8.30;;
22610;SDS011;11472;45.494;12.142;2023-03-01T00:24:01;12.20;;;8.30;;
22610;SDS011;11472;45.494;12.142;2023-03-01T00:25:00;12.20;;;8.30;;
22610;SDS011;11472;45.494;12.142;2023-03-01T00:26:00;12.20;;;8.30;;
22610;SDS011;11472;45.494;12.142;2023-03-01T00:27:00;12.20;;;8.30;;
22610;SDS011;11472;45.494;12.142;2023-03-01T00:28:00;12.20;;;8.30;;
22610;SDS011;11472;45.494;12.142;2023-03-01T00:29:00;12.20;;;8.30;;
22610;SDS011;11472;45.494;12.142;2023-03-01T00:30:00;12.20;;;8.30;;
22610;SDS011;11472;45.494;12.142;2023-03-01T00:31:05;12.20;;;8.30;;
22610;SDS011;11472;45.494;12.142;2023-03-01T00:32:00;12.20;;;8.30;;
22610;SDS011;11472;45.494;12.142;2023-03-01T00:33:00;12.20;;;8.30;;
22610;SDS011;11472;45.494;12.142;2023-03-01T00:34:04;12.20;;;8.30;;
22610;SDS011;11472;45.494;12.142;2023-03-01T00:35:00;12.20;;;8.30;;
22610;SDS011;11472;45.494;12.142;2023-03-01T00:36:00;12.20;;;8.30;;
22610;SDS011;11472;45.494;12.142;2023-03-01T00:37:05;15.30;;;8.90;;
22610;SDS011;11472;45.494;12.142;2023-03-01T00:38:00;15.30;;;8.90;;
22610;SDS011;11472;45.494;12.142;2023-03-01T00:39:00;15.30;;;8.90;;
22610;SDS011;11472;45.494;12.142;2023-03-01T00:40:00;15.30;;;8.90;;
22610;SDS011;11472;45.494;12.142;2023-03-01T00:41:10;15.30;;;8.90;;
22610;SDS011;11472;45.494;12.142;2023-03-01T00:42:00;15.30;;;8.90;;
22610;SDS011;11472;45.494;12.142;2023-03-01T00:43:01;15.30;;;8.90;;
22610;SDS011;11472;45.494;12.142;2023-03-01T00:44:00;15.30;;;8.90;;
22610;SDS011;11472;45.494;12.142;2023-03-01T00:45:00;15.30;;;8.90;;
22610;SDS011;11472;45.494;12.142;2023-03-01T00:46:02;15.30;;;8.90;;
22610;SDS011;11472;45.494;12.142;2023-03-01T00:47:00;15.30;;;8.90;;
22610;SDS011;11472;45.494;12.142;2023-03-01T00:48:00;15.30;;;8.90;;
22610;SDS011;11472;45.494;12.142;2023-03-01T00:49:02;15.30;;;8.90;;
22610;SDS011;11472;45.494;12.142;2023-03-01T00:50:00;15.30;;;8.90;;
22610;SDS011;11472;45.494;12.142;2023-03-01T00:51:09;15.30;;;8.90;;
22610;SDS011;11472;45.494;12.142;2023-03-01T00:52:00;14.30;;;8.70;;
22610;SDS011;11472;45.494;12.142;2023-03-01T00:53:00;14.30;;;8.70;;
22610;SDS011;11472;45.494;12.142;2023-03-01T00:54:01;14.30;;;8.70;;
22610;SDS011;11472;45.494;12.142;2023-03-01T00:55:00;14.30;;;8.70;;
22610;SDS011;11472;45.494;12.142;2023-03-01T00:56:00;14.30;;;8.70;;
22610;SDS011;11472;45.494;12.142;2023-03-01T00:57:00;14.30;;;8.70;;
22610;SDS011;11472;45.494;12.142;2023-03-01T00:58:00;14.30;;;8.70;;
22610;SDS011;11472;45.494;12.142;2023-03-01T00:59:01;14.30;;;8.70;;
22610;SDS011;11472;45.494;12.142;2023-03-01T01:00:00;14.30;;;8.70;;
22610;SDS011;11472;45.494;12.142;2023-03-01T01:01:01;14.30;;;8.70;;
22610;SDS011;11472;45.494;12.142;2023-03-01T01:02:00;14.30;;;8.70;;
22610;SDS011;11472;45.494;12.142;2023-03-01T01:03:00;14.30;;;8.70;;
22610;SDS011;11472;45.494;12.142;2023-03-01T01:04:04;14.30;;;8.70;;
22610;SDS011;11472;45.494;12.142;2023-03-01T01:05:00;14.30;;;8.70;;
22610;SDS011;11472;45.494;12.142;2023-03-01T01:06:13;14.30;;;8.70;;
22610;SDS011;11472;45.494;12.142;2023-03-01T01:07:00;16.90;;;9.00;;
22610;SDS011;11472;45.494;12.142;2023-03-01T01:08:00;16.90;;;9.00;;
22610;SDS011;11472;45.494;12.142;2023-03-01T01:09:01;16.90;;;9.00;;
22610;SDS011;11472;45.494;12.142;2023-03-01T01:10:00;16.90;;;9.00;;
22610;SDS011;11472;45.494;12.142;2023-03-01T01:11:00;16.90;;;9.00;;
22610;SDS011;11472;45.494;12.142;2023-03-01T01:12:00;16.90;;;9.00;;
22610;SDS011;11472;45.494;12.142;2023-03-01T01:13:00;16.90;;;9.00;;
22610;SDS011;11472;45.494;12.142;2023-03-01T01:14:00;16.90;;;9.00;;
22610;SDS011;11472;45.494;12.142;2023-03-01T01:15:00;16.90;;;9.00;;
22610;SDS011;11472;45.494;12.142;2023-03-01T01:16:01;16.90;;;9.00;;
22610;SDS011;11472;45.494;12.142;2023-03-01T01:17:00;16.90;;;9.00;;
22610;SDS011;11472;45.494;12.142;2023-03-01T01:18:01;16.90;;;9.00;;
22610;SDS011;11472;45.494;12.142;2023-03-01T01:19:00;16.90;;;9.00;;
22610;SDS011;11472;45.494;12.142;2023-03-01T01:20:00;16.90;;;9.00;;
22610;SDS011;11472;45.494;12.142;2023-03-01T01:21:10;16.90;;;9.00;;
22610;SDS011;11472;45.494;12.142;2023-03-01T01:22:00;19.30;;;9.20;;
22610;SDS011;11472;45.494;12.142;2023-03-01T01:23:00;19.30;;;9.20;;
22610;SDS011;11472;45.494;12.142;2023-03-01T01:24:02;19.30;;;9.20;;
22610;SDS011;11472;45.494;12.142;2023-03-01T01:25:00;19.30;;;9.20;;
22610;SDS011;11472;45.494;12.142;2023-03-01T01:26:11;19.30;;;9.20;;
22610;SDS011;11472;45.494;12.142;2023-03-01T01:27:00;19.30;;;9.20;;
22610;SDS011;11472;45.494;12.142;2023-03-01T01:28:00;19.30;;;9.20;;
22610;SDS011;11472;45.494;12.142;2023-03-01T01:29:02;19.30;;;9.20;;
22610;SDS011;11472;45.494;12.142;2023-03-01T01:30:00;19.30;;;9.20;;
22610;SDS011;11472;45.494;12.142;2023-03-01T01:31:00;19.30;;;9.20;;
22610;SDS011;11472;45.494;12.142;2023-03-01T01:32:00;19.30;;;9.20;;
22610;SDS011;11472;45.494;12.142;2023-03-01T01:33:00;19.30;;;9.20;;
22610;SDS011;11472;45.494;12.142;2023-03-01T01:34:01;19.30;;;9.20;;
22610;SDS011;11472;45.494;12.142;2023-03-01T01:35:00;19.30;;;9.20;;
22610;SDS011;11472;45.494;12.142;2023-03-01T01:36:00;19.30;;;9.20;;
22610;SDS011;11472;45.494;12.142;2023-03-01T01:37:02;12.90;;;8.50;;
22610;SDS011;11472;45.494;12.142;2023-03-01T01:38:00;12.90;;;8.50;;
22610;SDS011;11472;45.494;12.142;2023-03-01T01:39:01;12.90;;;8.50;;
22610;SDS011;11472;45.494;12.142;2023-03-01T01:40:01;12.90;;;8.50;;
22610;SDS011;11472;45.494;12.142;2023-03-01T01:41:00;12.90;;;8.50;;
22610;SDS011;11472;45.494;12.142;2023-03-01T01:42:01;12.90;;;8.50;;
22610;SDS011;11472;45.494;12.142;2023-03-01T01:43:00;12.90;;;8.50;;
22610;SDS011;11472;45.494;12.142;2023-03-01T01:46:04;12.90;;;8.50;;
22610;SDS011;11472;45.494;12.142;2023-03-01T01:47:05;12.90;;;8.50;;
22610;SDS011;11472;45.494;12.142;2023-03-01T01:48:07;12.90;;;8.50;;
22610;SDS011;11472;45.494;12.142;2023-03-01T01:49:03;12.90;;;8.50;;
22610;SDS011;11472;45.494;12.142;2023-03-01T01:50:00;12.90;;;8.50;;
22610;SDS011;11472;45.494;12.142;2023-03-01T01:51:01;12.90;;;8.50;;
22610;SDS011;11472;45.494;12.142;2023-03-01T01:52:07;16.20;;;8.60;;
22610;SDS011;11472;45.494;12.142;2023-03-01T01:53:00;16.20;;;8.60;;
22610;SDS011;11472;45.494;12.142;2023-03-01T01:54:00;16.20;;;8.60;;
22610;SDS011;11472;45.494;12.142;2023-03-01T01:55:05;16.20;;;8.60;;
22610;SDS011;11472;45.494;12.142;2023-03-01T01:56:00;16.20;;;8.60;;
22610;SDS011;11472;45.494;12.142;2023-03-01T01:57:02;16.20;;;8.60;;
22610;SDS011;11472;45.494;12.142;2023-03-01T01:58:02;16.20;;;8.60;;
22610;SDS011;11472;45.494;12.142;2023-03-01T01:59:00;16.20;;;8.60;;
22610;SDS011;11472;45.494;12.142;2023-03-01T02:00:04;16.20;;;8.60;;
22610;SDS011;11472;45.494;12.142;2023-03-01T02:01:01;16.20;;;8.60;;
22610;SDS011;11472;45.494;12.142;2023-03-01T02:02:01;16.20;;;8.60;;
22610;SDS011;11472;45.494;12.142;2023-03-01T02:03:04;16.20;;;8.60;;
22610;SDS011;11472;45.494;12.142;2023-03-01T02:04:00;16.20;;;8.60;;
22610;SDS011;11472;45.494;12.142;2023-03-01T02:05:12;16.20;;;8.60;;
22610;SDS011;11472;45.494;12.142;2023-03-01T02:06:07;16.20;;;8.60;;
22610;SDS011;11472;45.494;12.142;2023-03-01T02:07:05;14.90;;;8.70;;
22610;SDS011;11472;45.494;12.142;2023-03-01T02:08:00;14.90;;;8.70;;
22610;SDS011;11472;45.494;12.142;2023-03-01T02:09:04;14.90;;;8.70;;
22610;SDS011;11472;45.494;12.142;2023-03-01T02:10:00;14.90;;;8.70;;
22610;SDS011;11472;45.494;12.142;2023-03-01T02:11:00;14.90;;;8.70;;
22610;SDS011;11472;45.494;12.142;2023-03-01T02:12:01;14.90;;;8.70;;
22610;SDS011;11472;45.494;12.142;2023-03-01T02:13:01;14.90;;;8.70;;
22610;SDS011;11472;45.494;12.142;2023-03-01T02:14:00;14.90;;;8.70;;
22610;SDS011;11472;45.494;12.142;2023-03-01T02:15:00;14.90;;;8.70;;
22610;SDS011;11472;45.494;12.142;2023-03-01T02:16:05;14.90;;;8.70;;
22610;SDS011;11472;45.494;12.142;2023-03-01T02:17:00;14.90;;;8.70;;
22610;SDS011;11472;45.494;12.142;2023-03-01T02:18:02;14.90;;;8.70;;
22610;SDS011;11472;45.494;12.142;2023-03-01T02:19:00;14.90;;;8.70;;
22610;SDS011;11472;45.494;12.142;2023-03-01T02:22:34;14.40;;;8.20;;
22610;SDS011;11472;45.494;12.142;2023-03-01T02:23:00;14.40;;;8.20;;
22610;SDS011;11472;45.494;12.142;2023-03-01T02:24:06;14.40;;;8.20;;
22610;SDS011;11472;45.494;12.142;2023-03-01T02:27:00;14.40;;;8.20;;
22610;SDS011;11472;45.494;12.142;2023-03-01T02:28:19;14.40;;;8.20;;
22610;SDS011;11472;45.494;12.142;2023-03-01T02:29:00;14.40;;;8.20;;
22610;SDS011;11472;45.494;12.142;2023-03-01T02:30:00;14.40;;;8.20;;
22610;SDS011;11472;45.494;12.142;2023-03-01T02:31:10;14.40;;;8.20;;
22610;SDS011;11472;45.494;12.142;2023-03-01T02:32:01;14.40;;;8.20;;
22610;SDS011;11472;45.494;12.142;2023-03-01T02:33:04;14.40;;;8.20;;
22610;SDS011;11472;45.494;12.142;2023-03-01T02:34:01;14.40;;;8.20;;
22610;SDS011;11472;45.494;12.142;2023-03-01T02:35:00;14.40;;;8.20;;
22610;SDS011;11472;45.494;12.142;2023-03-01T02:36:01;14.40;;;8.20;;
22610;SDS011;11472;45.494;12.142;2023-03-01T02:37:07;14.40;;;8.20;;
22610;SDS011;11472;45.494;12.142;2023-03-01T02:38:01;14.40;;;8.20;;
22610;SDS011;11472;45.494;12.142;2023-03-01T02:39:02;14.40;;;8.20;;
22610;SDS011;11472;45.494;12.142;2023-03-01T02:40:04;14.40;;;8.20;;
22610;SDS011;11472;45.494;12.142;2023-03-01T02:41:01;14.40;;;8.20;;
22610;SDS011;11472;45.494;12.142;2023-03-01T02:42:00;14.40;;;8.20;;
22610;SDS011;11472;45.494;12.142;2023-03-01T02:43:00;14.40;;;8.20;;
22610;SDS011;11472;45.494;12.142;2023-03-01T02:44:00;14.40;;;8.20;;
22610;SDS011;11472;45.494;12.142;2023-03-01T02:45:00;14.40;;;8.20;;
22610;SDS011;11472;45.494;12.142;2023-03-01T02:46:13;14.40;;;8.20;;
22610;SDS011;11472;45.494;12.142;2023-03-01T02:47:02;14.40;;;8.20;;
22610;SDS011;11472;45.494;12.142;2023-03-01T02:48:00;14.40;;;8.20;;
22610;SDS011;11472;45.494;12.142;2023-03-01T02:49:00;14.40;;;8.20;;
22610;SDS011;11472;45.494;12.142;2023-03-01T02:50:00;14.40;;;8.20;;
22610;SDS011;11472;45.494;12.142;2023-03-01T02:52:17;13.10;;;8.50;;
22610;SDS011;11472;45.494;12.142;2023-03-01T02:53:06;13.10;;;8.50;;
22610;SDS011;11472;45.494;12.142;2023-03-01T02:55:02;13.10;;;8.50;;
22610;SDS011;11472;45.494;12.142;2023-03-01T02:56:01;13.10;;;8.50;;
22610;SDS011;11472;45.494;12.142;2023-03-01T02:57:01;13.10;;;8.50;;
22610;SDS011;11472;45.494;12.142;2023-03-01T02:58:01;13.10;;;8.50;;
22610;SDS011;11472;45.494;12.142;2023-03-01T02:59:00;13.10;;;8.50;;
22610;SDS011;11472;45.494;12.142;2023-03-01T03:00:08;13.10;;;8.50;;
22610;SDS011;11472;45.494;12.142;2023-03-01T03:01:00;13.10;;;8.50;;
22610;SDS011;11472;45.494;12.142;2023-03-01T03:02:01;13.10;;;8.50;;
22610;SDS011;11472;45.494;12.142;2023-03-01T03:03:00;13.10;;;8.50;;
22610;SDS011;11472;45.494;12.142;2023-03-01T03:04:00;13.10;;;8.50;;
22610;SDS011;11472;45.494;12.142;2023-03-01T03:05:01;13.10;;;8.50;;
22610;SDS011;11472;45.494;12.142;2023-03-01T03:06:00;13.10;;;8.50;;
22610;SDS011;11472;45.494;12.142;2023-03-01T03:07:00;15.10;;;8.10;;
22610;SDS011;11472;45.494;12.142;2023-03-01T03:08:02;15.10;;;8.10;;
22610;SDS011;11472;45.494;12.142;2023-03-01T03:09:01;15.10;;;8.10;;
22610;SDS011;11472;45.494;12.142;2023-03-01T03:10:01;15.10;;;8.10;;
22610;SDS011;11472;45.494;12.142;2023-03-01T03:11:00;15.10;;;8.10;;
22610;SDS011;11472;45.494;12.142;2023-03-01T03:12:00;15.10;;;8.10;;
22610;SDS011;11472;45.494;12.142;2023-03-01T03:13:03;15.10;;;8.10;;
22610;SDS011;11472;45.494;12.142;2023-03-01T03:14:01;15.10;;;8.10;;
22610;SDS011;11472;45.494;12.142;2023-03-01T03:15:00;15.10;;;8.10;;
22610;SDS011;11472;45.494;12.142;2023-03-01T03:16:01;15.10;;;8.10;;
22610;SDS011;11472;45.494;12.142;2023-03-01T03:17:00;15.10;;;8.10;;
22610;SDS011;11472;45.494;12.142;2023-03-01T03:18:00;15.10;;;8.10;;
22610;SDS011;11472;45.494;12.142;2023-03-01T03:19:04;15.10;;;8.10;;
22610;SDS011;11472;45.494;12.142;2023-03-01T03:20:00;15.10;;;8.10;;
22610;SDS011;11472;45.494;12.142;2023-03-01T03:21:00;15.10;;;8.10;;
22610;SDS011;11472;45.494;12.142;2023-03-01T03:22:01;10.70;;;7.40;;
22610;SDS011;11472;45.494;12.142;2023-03-01T03:23:00;10.70;;;7.40;;
22610;SDS011;11472;45.494;12.142;2023-03-01T03:24:01;10.70;;;7.40;;
22610;SDS011;11472;45.494;12.142;2023-03-01T03:25:00;10.70;;;7.40;;
22610;SDS011;11472;45.494;12.142;2023-03-01T03:26:00;10.70;;;7.40;;
22610;SDS011;11472;45.494;12.142;2023-03-01T03:27:00;10.70;;;7.40;;
22610;SDS011;11472;45.494;12.142;2023-03-01T03:28:00;10.70;;;7.40;;
22610;SDS011;11472;45.494;12.142;2023-03-01T03:29:01;10.70;;;7.40;;
22610;SDS011;11472;45.494;12.142;2023-03-01T03:30:00;10.70;;;7.40;;
22610;SDS011;11472;45.494;12.142;2023-03-01T03:31:05;10.70;;;7.40;;
22610;SDS011;11472;45.494;12.142;2023-03-01T03:32:00;10.70;;;7.40;;
22610;SDS011;11472;45.494;12.142;2023-03-01T03:33:00;10.70;;;7.40;;
22610;SDS011;11472;45.494;12.142;2023-03-01T03:34:00;10.70;;;7.40;;
22610;SDS011;11472;45.494;12.142;2023-03-01T03:35:01;10.70;;;7.40;;
22610;SDS011;11472;45.494;12.142;2023-03-01T03:36:00;10.70;;;7.40;;
22610;SDS011;11472;45.494;12.142;2023-03-01T03:37:00;13.10;;;7.30;;
22610;SDS011;11472;45.494;12.142;2023-03-01T03:38:04;13.10;;;7.30;;
22610;SDS011;11472;45.494;12.142;2023-03-01T03:39:00;13.10;;;7.30;;
22610;SDS011;11472;45.494;12.142;2023-03-01T03:40:00;13.10;;;7.30;;
22610;SDS011;11472;45.494;12.142;2023-03-01T03:41:03;13.10;;;7.30;;
22610;SDS011;11472;45.494;12.142;2023-03-01T03:42:01;13.10;;;7.30;;
22610;SDS011;11472;45.494;12.142;2023-03-01T03:43:01;13.10;;;7.30;;
22610;SDS011;11472;45.494;12.142;2023-03-01T03:44:00;13.10;;;7.30;;
22610;SDS011;11472;45.494;12.142;2023-03-01T03:45:00;13.10;;;7.30;;
22610;SDS011;11472;45.494;12.142;2023-03-01T03:46:01;13.10;;;7.30;;
22610;SDS011;11472;45.494;12.142;2023-03-01T03:47:00;13.10;;;7.30;;
22610;SDS011;11472;45.494;12.142;2023-03-01T03:48:02;13.10;;;7.30;;
22610;SDS011;11472;45.494;12.142;2023-03-01T03:49:00;13.10;;;7.30;;
22610;SDS011;11472;45.494;12.142;2023-03-01T03:50:00;13.10;;;7.30;;
22610;SDS011;11472;45.494;12.142;2023-03-01T03:51:00;13.10;;;7.30;;
22610;SDS011;11472;45.494;12.142;2023-03-01T03:52:00;12.60;;;6.80;;
22610;SDS011;11472;45.494;12.142;2023-03-01T03:53:02;12.60;;;6.80;;
22610;SDS011;11472;45.494;12.142;2023-03-01T03:54:00;12.60;;;6.80;;
22610;SDS011;11472;45.494;12.142;2023-03-01T03:55:00;12.60;;;6.80;;
22610;SDS011;11472;45.494;12.142;2023-03-01T03:56:00;12.60;;;6.80;;
22610;SDS011;11472;45.494;12.142;2023-03-01T03:57:00;12.60;;;6.80;;
22610;SDS011;11472;45.494;12.142;2023-03-01T03:58:07;12.60;;;6.80;;
22610;SDS011;11472;45.494;12.142;2023-03-01T03:59:00;12.60;;;6.80;;
22610;SDS011;11472;45.494;12.142;2023-03-01T04:00:00;12.60;;;6.80;;
22610;SDS011;11472;45.494;12.142;2023-03-01T04:01:00;12.60;;;6.80;;
22610;SDS011;11472;45.494;12.142;2023-03-01T04:02:00;12.60;;;6.80;;
22610;SDS011;11472;45.494;12.142;2023-03-01T04:03:00;12.60;;;6.80;;
22610;SDS011;11472;45.494;12.142;2023-03-01T04:04:04;12.60;;;6.80;;
22610;SDS011;11472;45.494;12.142;2023-03-01T04:05:00;12.60;;;6.80;;
22610;SDS011;11472;45.494;12.142;2023-03-01T04:06:01;12.60;;;6.80;;
22610;SDS011;11472;45.494;12.142;2023-03-01T04:07:00;10.60;;;7.40;;
22610;SDS011;11472;45.494;12.142;2023-03-01T04:08:02;10.60;;;7.40;;
22610;SDS011;11472;45.494;12.142;2023-03-01T04:09:02;10.60;;;7.40;;
22610;SDS011;11472;45.494;12.142;2023-03-01T04:10:03;10.60;;;7.40;;
22610;SDS011;11472;45.494;12.142;2023-03-01T04:11:11;10.60;;;7.40;;
22610;SDS011;11472;45.494;12.142;2023-03-01T04:12:00;10.60;;;7.40;;
22610;SDS011;11472;45.494;12.142;2023-03-01T04:13:00;10.60;;;7.40;;
22610;SDS011;11472;45.494;12.142;2023-03-01T04:14:00;10.60;;;7.40;;
22610;SDS011;11472;45.494;12.142;2023-03-01T04:15:12;10.60;;;7.40;;
22610;SDS011;11472;45.494;12.142;2023-03-01T04:16:00;10.60;;;7.40;;
22610;SDS011;11472;45.494;12.142;2023-03-01T04:17:01;10.60;;;7.40;;
22610;SDS011;11472;45.494;12.142;2023-03-01T04:18:01;10.60;;;7.40;;
22610;SDS011;11472;45.494;12.142;2023-03-01T04:19:00;10.60;;;7.40;;
22610;SDS011;11472;45.494;12.142;2023-03-01T04:20:05;10.60;;;7.40;;
22610;SDS011;11472;45.494;12.142;2023-03-01T04:21:00;10.60;;;7.40;;
22610;SDS011;11472;45.494;12.142;2023-03-01T04:22:09;12.10;;;6.70;;
22610;SDS011;11472;45.494;12.142;2023-03-01T04:23:13;12.10;;;6.70;;
22610;SDS011;11472;45.494;12.142;2023-03-01T04:24:03;12.10;;;6.70;;
22610;SDS011;11472;45.494;12.142;2023-03-01T04:25:06;12.10;;;6.70;;
22610;SDS011;11472;45.494;12.142;2023-03-01T04:26:00;12.10;;;6.70;;
22610;SDS011;11472;45.494;12.142;2023-03-01T04:27:01;12.10;;;6.70;;
22610;SDS011;11472;45.494;12.142;2023-03-01T04:28:00;12.10;;;6.70;;
22610;SDS011;11472;45.494;12.142;2023-03-01T04:29:00;12.10;;;6.70;;
22610;SDS011;11472;45.494;12.142;2023-03-01T04:30:01;12.10;;;6.70;;
22610;SDS011;11472;45.494;12.142;2023-03-01T04:31:13;12.10;;;6.70;;
22610;SDS011;11472;45.494;12.142;2023-03-01T04:32:01;12.10;;;6.70;;
22610;SDS011;11472;45.494;12.142;2023-03-01T04:33:02;12.10;;;6.70;;
22610;SDS011;11472;45.494;12.142;2023-03-01T04:34:00;12.10;;;6.70;;
22610;SDS011;11472;45.494;12.142;2023-03-01T04:35:00;12.10;;;6.70;;
22610;SDS011;11472;45.494;12.142;2023-03-01T04:36:05;12.10;;;6.70;;
22610;SDS011;11472;45.494;12.142;2023-03-01T04:37:00;12.80;;;7.30;;
22610;SDS011;11472;45.494;12.142;2023-03-01T04:38:00;12.80;;;7.30;;
22610;SDS011;11472;45.494;12.142;2023-03-01T04:39:10;12.80;;;7.30;;
22610;SDS011;11472;45.494;12.142;2023-03-01T04:40:02;12.80;;;7.30;;
22610;SDS011;11472;45.494;12.142;2023-03-01T04:41:04;12.80;;;7.30;;
22610;SDS011;11472;45.494;12.142;2023-03-01T04:42:01;12.80;;;7.30;;
22610;SDS011;11472;45.494;12.142;2023-03-01T04:43:01;12.80;;;7.30;;
22610;SDS011;11472;45.494;12.142;2023-03-01T04:44:00;12.80;;;7.30;;
22610;SDS011;11472;45.494;12.142;2023-03-01T04:45:00;12.80;;;7.30;;
22610;SDS011;11472;45.494;12.142;2023-03-01T04:46:03;12.80;;;7.30;;
22610;SDS011;11472;45.494;12.142;2023-03-01T04:47:00;12.80;;;7.30;;
22610;SDS011;11472;45.494;12.142;2023-03-01T04:48:00;12.80;;;7.30;;
22610;SDS011;11472;45.494;12.142;2023-03-01T04:49:01;12.80;;;7.30;;
22610;SDS011;11472;45.494;12.142;2023-03-01T04:50:00;12.80;;;7.30;;
22610;SDS011;11472;45.494;12.142;2023-03-01T04:51:01;12.80;;;7.30;;
22610;SDS011;11472;45.494;12.142;2023-03-01T04:52:04;12.30;;;7.50;;
22610;SDS011;11472;45.494;12.142;2023-03-01T04:53:01;12.30;;;7.50;;
22610;SDS011;11472;45.494;12.142;2023-03-01T04:54:00;12.30;;;7.50;;
22610;SDS011;11472;45.494;12.142;2023-03-01T04:55:01;12.30;;;7.50;;
22610;SDS011;11472;45.494;12.142;2023-03-01T04:56:00;12.30;;;7.50;;
22610;SDS011;11472;45.494;12.142;2023-03-01T04:57:02;12.30;;;7.50;;
22610;SDS011;11472;45.494;12.142;2023-03-01T04:58:00;12.30;;;7.50;;
22610;SDS011;11472;45.494;12.142;2023-03-01T04:59:00;12.30;;;7.50;;
22610;SDS011;11472;45.494;12.142;2023-03-01T05:00:00;12.30;;;7.50;;
22610;SDS011;11472;45.494;12.142;2023-03-01T05:01:00;12.30;;;7.50;;
22610;SDS011;11472;45.494;12.142;2023-03-01T05:02:00;12.30;;;7.50;;
22610;SDS011;11472;45.494;12.142;2023-03-01T05:03:01;12.30;;;7.50;;
22610;SDS011;11472;45.494;12.142;2023-03-01T05:04:02;12.30;;;7.50;;
22610;SDS011;11472;45.494;12.142;2023-03-01T05:05:00;12.30;;;7.50;;
22610;SDS011;11472;45.494;12.142;2023-03-01T05:06:00;12.30;;;7.50;;
22610;SDS011;11472;45.494;12.142;2023-03-01T05:07:00;12.90;;;7.70;;
22610;SDS011;11472;45.494;12.142;2023-03-01T05:08:03;12.90;;;7.70;;
22610;SDS011;11472;45.494;12.142;2023-03-01T05:09:01;12.90;;;7.70;;
22610;SDS011;11472;45.494;12.142;2023-03-01T05:10:00;12.90;;;7.70;;
22610;SDS011;11472;45.494;12.142;2023-03-01T05:11:00;12.90;;;7.70;;
22610;SDS011;11472;45.494;12.142;2023-03-01T05:12:00;12.90;;;7.70;;
22610;SDS011;11472;45.494;12.142;2023-03-01T05:13:01;12.90;;;7.70;;
22610;SDS011;11472;45.494;12.142;2023-03-01T05:14:01;12.90;;;7.70;;
22610;SDS011;11472;45.494;12.142;2023-03-01T05:15:00;12.90;;;7.70;;
22610;SDS011;11472;45.494;12.142;2023-03-01T05:16:01;12.90;;;7.70;;
22610;SDS011;11472;45.494;12.142;2023-03-01T05:17:03;12.90;;;7.70;;
22610;SDS011;11472;45.494;12.142;2023-03-01T05:18:01;12.90;;;7.70;;
22610;SDS011;11472;45.494;12.142;2023-03-01T05:19:00;12.90;;;7.70;;
22610;SDS011;11472;45.494;12.142;2023-03-01T05:20:01;12.90;;;7.70;;
22610;SDS011;11472;45.494;12.142;2023-03-01T05:21:05;12.90;;;7.70;;
22610;SDS011;11472;45.494;12.142;2023-03-01T05:22:01;13.40;;;7.20;;
22610;SDS011;11472;45.494;12.142;2023-03-01T05:23:05;13.40;;;7.20;;
22610;SDS011;11472;45.494;12.142;2023-03-01T05:24:00;13.40;;;7.20;;
22610;SDS011;11472;45.494;12.142;2023-03-01T05:25:01;13.40;;;7.20;;
22610;SDS011;11472;45.494;12.142;2023-03-01T05:26:02;13.40;;;7.20;;
22610;SDS011;11472;45.494;12.142;2023-03-01T05:27:01;13.40;;;7.20;;
22610;SDS011;11472;45.494;12.142;2023-03-01T05:28:04;13.40;;;7.20;;
22610;SDS011;11472;45.494;12.142;2023-03-01T05:29:01;13.40;;;7.20;;
22610;SDS011;11472;45.494;12.142;2023-03-01T05:30:10;13.40;;;7.20;;
22610;SDS011;11472;45.494;12.142;2023-03-01T05:31:00;13.40;;;7.20;;
22610;SDS011;11472;45.494;12.142;2023-03-01T05:32:02;13.40;;;7.20;;
22610;SDS011;11472;45.494;12.142;2023-03-01T05:33:01;13.40;;;7.20;;
22610;SDS011;11472;45.494;12.142;2023-03-01T05:34:01;13.40;;;7.20;;
22610;SDS011;11472;45.494;12.142;2023-03-01T05:35:00;13.40;;;7.20;;
22610;SDS011;11472;45.494;12.142;2023-03-01T05:36:01;13.40;;;7.20;;
22610;SDS011;11472;45.494;12.142;2023-03-01T05:37:01;14.10;;;8.00;;
22610;SDS011;11472;45.494;12.142;2023-03-01T05:38:00;14.10;;;8.00;;
22610;SDS011;11472;45.494;12.142;2023-03-01T05:39:00;14.10;;;8.00;;
22610;SDS011;11472;45.494;12.142;2023-03-01T05:40:01;14.10;;;8.00;;
22610;SDS011;11472;45.494;12.142;2023-03-01T05:41:00;14.10;;;8.00;;
22610;SDS011;11472;45.494;12.142;2023-03-01T05:42:01;14.10;;;8.00;;
22610;SDS011;11472;45.494;12.142;2023-03-01T05:43:00;14.10;;;8.00;;
22610;SDS011;11472;45.494;12.142;2023-03-01T05:44:01;14.10;;;8.00;;
22610;SDS011;11472;45.494;12.142;2023-03-01T05:45:00;14.10;;;8.00;;
22610;SDS011;11472;45.494;12.142;2023-03-01T05:46:00;14.10;;;8.00;;
22610;SDS011;11472;45.494;12.142;2023-03-01T05:47:00;14.10;;;8.00;;
22610;SDS011;11472;45.494;12.142;2023-03-01T05:48:00;14.10;;;8.00;;
22610;SDS011;11472;45.494;12.142;2023-03-01T05:49:00;14.10;;;8.00;;
22610;SDS011;11472;45.494;12.142;2023-03-01T05:50:01;14.10;;;8.00;;
22610;SDS011;11472;45.494;12.142;2023-03-01T05:51:00;14.10;;;8.00;;
22610;SDS011;11472;45.494;12.142;2023-03-01T05:52:00;13.50;;;7.30;;
22610;SDS011;11472;45.494;12.142;2023-03-01T05:53:03;13.50;;;7.30;;
22610;SDS011;11472;45.494;12.142;2023-03-01T05:54:00;13.50;;;7.30;;
22610;SDS011;11472;45.494;12.142;2023-03-01T05:55:00;13.50;;;7.30;;
22610;SDS011;11472;45.494;12.142;2023-03-01T05:56:03;13.50;;;7.30;;
22610;SDS011;11472;45.494;12.142;2023-03-01T05:57:00;13.50;;;7.30;;
22610;SDS011;11472;45.494;12.142;2023-03-01T05:58:02;13.50;;;7.30;;